sensor_id;sensor_type;location;lat;lon;timestamp;temperature;humidity
698;DHT22;331;48.414;9.938;2023-05-07T00:00:31;15.70;99.90
698;DHT22;331;48.414;9.938;2023-05-07T00:02:59;15.70;99.90
698;DHT22;331;48.414;9.938;2023-05-07T00:05:26;15.70;99.90
698;DHT22;331;48.414;9.938;2023-05-07T00:07:53;15.70;99.90
698;DHT22;331;48.414;9.938;2023-05-07T00:10:20;15.60;99.90
698;DHT22;331;48.414;9.938;2023-05-07T00:12:47;15.60;99.90
698;DHT22;331;48.414;9.938;2023-05-07T00:15:14;15.60;99.90
698;DHT22;331;48.414;9.938;2023-05-07T00:17:43;15.60;99.90
698;DHT22;331;48.414;9.938;2023-05-07T00:20:10;15.60;99.90
698;DHT22;331;48.414;9.938;2023-05-07T00:22:37;15.60;99.90
698;DHT22;331;48.414;9.938;2023-05-07T00:25:05;15.50;99.90
698;DHT22;331;48.414;9.938;2023-05-07T00:27:32;15.50;99.90
698;DHT22;331;48.414;9.938;2023-05-07T00:29:59;15.50;99.90
698;DHT22;331;48.414;9.938;2023-05-07T00:32:28;15.50;99.90
698;DHT22;331;48.414;9.938;2023-05-07T00:34:57;15.50;99.90
698;DHT22;331;48.414;9.938;2023-05-07T00:37:24;15.50;99.90
698;DHT22;331;48.414;9.938;2023-05-07T00:39:51;15.50;99.90
698;DHT22;331;48.414;9.938;2023-05-07T00:42:18;15.40;99.90
698;DHT22;331;48.414;9.938;2023-05-07T00:44:45;15.40;99.90
698;DHT22;331;48.414;9.938;2023-05-07T00:47:12;15.40;99.90
698;DHT22;331;48.414;9.938;2023-05-07T00:49:41;15.40;99.90
698;DHT22;331;48.414;9.938;2023-05-07T00:52:11;15.40;99.90
698;DHT22;331;48.414;9.938;2023-05-07T00:54:38;15.30;99.90
698;DHT22;331;48.414;9.938;2023-05-07T00:57:05;15.30;99.90
698;DHT22;331;48.414;9.938;2023-05-07T00:59:33;15.30;99.90
698;DHT22;331;48.414;9.938;2023-05-07T01:02:00;15.30;99.90
698;DHT22;331;48.414;9.938;2023-05-07T01:04:27;15.30;99.90
698;DHT22;331;48.414;9.938;2023-05-07T01:06:55;15.20;99.90
698;DHT22;331;48.414;9.938;2023-05-07T01:09:25;15.20;99.90
698;DHT22;331;48.414;9.938;2023-05-07T01:11:53;15.20;99.90
698;DHT22;331;48.414;9.938;2023-05-07T01:14:20;15.20;99.90
698;DHT22;331;48.414;9.938;2023-05-07T01:16:49;15.20;99.90
698;DHT22;331;48.414;9.938;2023-05-07T01:19:18;15.10;99.90
698;DHT22;331;48.414;9.938;2023-05-07T01:21:46;15.20;99.90
698;DHT22;331;48.414;9.938;2023-05-07T01:24:17;15.20;99.90
698;DHT22;331;48.414;9.938;2023-05-07T01:26:45;15.10;99.90
698;DHT22;331;48.414;9.938;2023-05-07T01:29:14;15.10;99.90
698;DHT22;331;48.414;9.938;2023-05-07T01:31:41;15.10;99.90
698;DHT22;331;48.414;9.938;2023-05-07T01:34:08;15.10;99.90
698;DHT22;331;48.414;9.938;2023-05-07T01:36:37;15.00;99.90
698;DHT22;331;48.414;9.938;2023-05-07T01:39:05;15.00;99.90
698;DHT22;331;48.414;9.938;2023-05-07T01:41:34;15.00;99.90
698;DHT22;331;48.414;9.938;2023-05-07T01:44:01;15.00;99.90
698;DHT22;331;48.414;9.938;2023-05-07T01:46:29;15.00;99.90
698;DHT22;331;48.414;9.938;2023-05-07T01:48:57;15.00;99.90
698;DHT22;331;48.414;9.938;2023-05-07T01:51:24;14.90;99.90
698;DHT22;331;48.414;9.938;2023-05-07T01:53:52;14.90;99.90
698;DHT22;331;48.414;9.938;2023-05-07T01:56:20;14.90;99.90
698;DHT22;331;48.414;9.938;2023-05-07T01:58:49;14.90;99.90
698;DHT22;331;48.414;9.938;2023-05-07T02:01:17;14.90;99.90
698;DHT22;331;48.414;9.938;2023-05-07T02:03:44;14.80;99.90
698;DHT22;331;48.414;9.938;2023-05-07T02:06:19;14.80;99.90
698;DHT22;331;48.414;9.938;2023-05-07T02:08:47;14.80;99.90
698;DHT22;331;48.414;9.938;2023-05-07T02:11:15;14.80;99.90
698;DHT22;331;48.414;9.938;2023-05-07T02:13:42;14.80;99.90
698;DHT22;331;48.414;9.938;2023-05-07T02:16:11;14.80;99.90
698;DHT22;331;48.414;9.938;2023-05-07T02:18:40;14.70;99.90
698;DHT22;331;48.414;9.938;2023-05-07T02:21:08;14.70;99.90
698;DHT22;331;48.414;9.938;2023-05-07T02:23:35;14.70;99.90
698;DHT22;331;48.414;9.938;2023-05-07T02:26:03;14.70;99.90
698;DHT22;331;48.414;9.938;2023-05-07T02:28:31;14.60;99.90
698;DHT22;331;48.414;9.938;2023-05-07T02:31:03;14.70;99.90
698;DHT22;331;48.414;9.938;2023-05-07T02:33:33;14.70;99.90
698;DHT22;331;48.414;9.938;2023-05-07T02:36:07;14.60;99.90
698;DHT22;331;48.414;9.938;2023-05-07T02:38:38;14.60;99.90
698;DHT22;331;48.414;9.938;2023-05-07T02:41:06;14.60;99.90
698;DHT22;331;48.414;9.938;2023-05-07T02:43:35;14.60;99.90
698;DHT22;331;48.414;9.938;2023-05-07T02:46:05;14.50;99.90
698;DHT22;331;48.414;9.938;2023-05-07T02:48:40;14.50;99.90
698;DHT22;331;48.414;9.938;2023-05-07T02:51:07;14.50;99.90
698;DHT22;331;48.414;9.938;2023-05-07T02:53:41;14.50;99.90
698;DHT22;331;48.414;9.938;2023-05-07T02:56:08;14.50;99.90
698;DHT22;331;48.414;9.938;2023-05-07T02:58:37;14.50;99.90
698;DHT22;331;48.414;9.938;2023-05-07T03:01:05;14.50;99.90
698;DHT22;331;48.414;9.938;2023-05-07T03:03:46;14.40;99.90
698;DHT22;331;48.414;9.938;2023-05-07T03:06:13;14.50;99.90
698;DHT22;331;48.414;9.938;2023-05-07T03:08:40;14.40;99.90
698;DHT22;331;48.414;9.938;2023-05-07T03:11:07;14.40;99.90
698;DHT22;331;48.414;9.938;2023-05-07T03:13:34;14.40;99.90
698;DHT22;331;48.414;9.938;2023-05-07T03:16:02;14.40;99.90
698;DHT22;331;48.414;9.938;2023-05-07T03:18:28;14.40;99.90
698;DHT22;331;48.414;9.938;2023-05-07T03:20:57;14.40;99.90
698;DHT22;331;48.414;9.938;2023-05-07T03:23:24;14.30;99.90
698;DHT22;331;48.414;9.938;2023-05-07T03:25:51;14.40;99.90
698;DHT22;331;48.414;9.938;2023-05-07T03:28:17;14.30;99.90
698;DHT22;331;48.414;9.938;2023-05-07T03:30:51;14.30;99.90
698;DHT22;331;48.414;9.938;2023-05-07T03:33:19;14.30;99.90
698;DHT22;331;48.414;9.938;2023-05-07T03:35:46;14.30;99.90
698;DHT22;331;48.414;9.938;2023-05-07T03:38:20;14.20;99.90
698;DHT22;331;48.414;9.938;2023-05-07T03:40:47;14.20;99.90
698;DHT22;331;48.414;9.938;2023-05-07T03:43:15;14.20;99.90
698;DHT22;331;48.414;9.938;2023-05-07T03:45:47;14.20;99.90
698;DHT22;331;48.414;9.938;2023-05-07T03:48:19;14.20;99.90
698;DHT22;331;48.414;9.938;2023-05-07T03:50:48;14.20;99.90
698;DHT22;331;48.414;9.938;2023-05-07T03:53:17;14.20;99.90
698;DHT22;331;48.414;9.938;2023-05-07T03:55:45;14.10;99.90
698;DHT22;331;48.414;9.938;2023-05-07T03:58:13;14.10;99.90
698;DHT22;331;48.414;9.938;2023-05-07T04:00:41;14.10;99.90
698;DHT22;331;48.414;9.938;2023-05-07T04:03:17;14.10;99.90
698;DHT22;331;48.414;9.938;2023-05-07T04:05:45;14.10;99.90
698;DHT22;331;48.414;9.938;2023-05-07T04:08:14;14.10;99.90
698;DHT22;331;48.414;9.938;2023-05-07T04:10:47;14.10;99.90
698;DHT22;331;48.414;9.938;2023-05-07T04:13:14;14.00;99.90
698;DHT22;331;48.414;9.938;2023-05-07T04:15:42;14.00;99.90
698;DHT22;331;48.414;9.938;2023-05-07T04:18:12;14.00;99.90
698;DHT22;331;48.414;9.938;2023-05-07T04:20:41;14.00;99.90
698;DHT22;331;48.414;9.938;2023-05-07T04:23:11;14.00;99.90
698;DHT22;331;48.414;9.938;2023-05-07T04:25:38;13.90;99.90
698;DHT22;331;48.414;9.938;2023-05-07T04:28:22;14.00;99.90
698;DHT22;331;48.414;9.938;2023-05-07T04:30:49;13.90;99.90
698;DHT22;331;48.414;9.938;2023-05-07T04:33:17;13.90;99.90
698;DHT22;331;48.414;9.938;2023-05-07T04:35:46;13.90;99.90
698;DHT22;331;48.414;9.938;2023-05-07T04:38:13;13.90;99.90
698;DHT22;331;48.414;9.938;2023-05-07T04:40:41;13.90;99.90
698;DHT22;331;48.414;9.938;2023-05-07T04:43:14;13.80;99.90
698;DHT22;331;48.414;9.938;2023-05-07T04:45:49;13.80;99.90
698;DHT22;331;48.414;9.938;2023-05-07T04:48:16;13.80;99.90
698;DHT22;331;48.414;9.938;2023-05-07T04:50:47;13.80;99.90
698;DHT22;331;48.414;9.938;2023-05-07T04:53:14;13.80;99.90
698;DHT22;331;48.414;9.938;2023-05-07T04:55:41;13.80;99.90
698;DHT22;331;48.414;9.938;2023-05-07T04:58:08;13.80;99.90
698;DHT22;331;48.414;9.938;2023-05-07T05:00:38;13.80;99.90
698;DHT22;331;48.414;9.938;2023-05-07T05:03:07;13.70;99.90
698;DHT22;331;48.414;9.938;2023-05-07T05:05:37;13.70;99.90
698;DHT22;331;48.414;9.938;2023-05-07T05:08:04;13.70;99.90
698;DHT22;331;48.414;9.938;2023-05-07T05:10:32;13.70;99.90
698;DHT22;331;48.414;9.938;2023-05-07T05:12:59;13.70;99.90
698;DHT22;331;48.414;9.938;2023-05-07T05:15:29;13.70;99.90
698;DHT22;331;48.414;9.938;2023-05-07T05:17:56;13.70;99.90
698;DHT22;331;48.414;9.938;2023-05-07T05:20:25;13.70;99.90
698;DHT22;331;48.414;9.938;2023-05-07T05:22:52;13.70;99.90
698;DHT22;331;48.414;9.938;2023-05-07T05:25:19;13.60;99.90
698;DHT22;331;48.414;9.938;2023-05-07T05:27:47;13.60;99.90
698;DHT22;331;48.414;9.938;2023-05-07T05:30:14;13.60;99.90
698;DHT22;331;48.414;9.938;2023-05-07T05:32:44;13.60;99.90
698;DHT22;331;48.414;9.938;2023-05-07T05:35:12;13.60;99.90
698;DHT22;331;48.414;9.938;2023-05-07T05:37:41;13.60;99.90
698;DHT22;331;48.414;9.938;2023-05-07T05:40:09;13.60;99.90
698;DHT22;331;48.414;9.938;2023-05-07T05:42:36;13.60;99.90
698;DHT22;331;48.414;9.938;2023-05-07T05:45:03;13.60;99.90
698;DHT22;331;48.414;9.938;2023-05-07T05:47:32;13.50;99.90
698;DHT22;331;48.414;9.938;2023-05-07T05:49:59;13.50;99.90
698;DHT22;331;48.414;9.938;2023-05-07T05:52:26;13.60;99.90
698;DHT22;331;48.414;9.938;2023-05-07T05:54:56;13.50;99.90
698;DHT22;331;48.414;9.938;2023-05-07T05:57:23;13.50;99.90
698;DHT22;331;48.414;9.938;2023-05-07T05:59:50;13.50;99.90
698;DHT22;331;48.414;9.938;2023-05-07T06:02:17;13.50;99.90
698;DHT22;331;48.414;9.938;2023-05-07T06:04:45;13.50;99.90
698;DHT22;331;48.414;9.938;2023-05-07T06:07:16;13.50;99.90
698;DHT22;331;48.414;9.938;2023-05-07T06:09:43;13.50;99.90
698;DHT22;331;48.414;9.938;2023-05-07T06:12:11;13.50;99.90
698;DHT22;331;48.414;9.938;2023-05-07T06:14:38;13.50;99.90
698;DHT22;331;48.414;9.938;2023-05-07T06:17:06;13.50;99.90
698;DHT22;331;48.414;9.938;2023-05-07T06:19:33;13.50;99.90
698;DHT22;331;48.414;9.938;2023-05-07T06:22:00;13.50;99.90
698;DHT22;331;48.414;9.938;2023-05-07T06:24:29;13.50;99.90
698;DHT22;331;48.414;9.938;2023-05-07T06:26:59;13.50;99.90
698;DHT22;331;48.414;9.938;2023-05-07T06:29:29;13.60;99.90
698;DHT22;331;48.414;9.938;2023-05-07T06:32:05;13.50;99.90
698;DHT22;331;48.414;9.938;2023-05-07T06:34:32;13.60;99.90
698;DHT22;331;48.414;9.938;2023-05-07T06:37:00;13.60;99.90
698;DHT22;331;48.414;9.938;2023-05-07T06:39:43;13.60;99.90
698;DHT22;331;48.414;9.938;2023-05-07T06:42:10;13.60;99.90
698;DHT22;331;48.414;9.938;2023-05-07T06:44:42;13.60;99.90
698;DHT22;331;48.414;9.938;2023-05-07T06:47:14;13.60;99.90
698;DHT22;331;48.414;9.938;2023-05-07T06:49:49;13.60;99.90
698;DHT22;331;48.414;9.938;2023-05-07T06:52:18;13.60;99.90
698;DHT22;331;48.414;9.938;2023-05-07T06:54:54;13.70;99.90
698;DHT22;331;48.414;9.938;2023-05-07T06:57:25;13.70;99.90
698;DHT22;331;48.414;9.938;2023-05-07T06:59:54;13.70;99.90
698;DHT22;331;48.414;9.938;2023-05-07T07:02:24;13.70;99.90
698;DHT22;331;48.414;9.938;2023-05-07T07:04:51;13.70;99.90
698;DHT22;331;48.414;9.938;2023-05-07T07:07:22;13.70;99.90
698;DHT22;331;48.414;9.938;2023-05-07T07:10:03;13.80;99.90
698;DHT22;331;48.414;9.938;2023-05-07T07:12:45;13.80;99.90
698;DHT22;331;48.414;9.938;2023-05-07T07:15:22;13.80;99.90
698;DHT22;331;48.414;9.938;2023-05-07T07:17:54;13.90;99.90
698;DHT22;331;48.414;9.938;2023-05-07T07:20:27;13.90;99.90
698;DHT22;331;48.414;9.938;2023-05-07T07:22:54;13.90;99.90
698;DHT22;331;48.414;9.938;2023-05-07T07:25:35;13.90;99.90
698;DHT22;331;48.414;9.938;2023-05-07T07:28:20;13.90;99.90
698;DHT22;331;48.414;9.938;2023-05-07T07:30:49;14.00;99.90
698;DHT22;331;48.414;9.938;2023-05-07T07:33:17;14.00;99.90
698;DHT22;331;48.414;9.938;2023-05-07T07:35:48;14.00;99.90
698;DHT22;331;48.414;9.938;2023-05-07T07:38:18;14.00;99.90
698;DHT22;331;48.414;9.938;2023-05-07T07:40:47;14.00;99.90
698;DHT22;331;48.414;9.938;2023-05-07T07:43:16;14.10;99.90
698;DHT22;331;48.414;9.938;2023-05-07T07:45:43;14.10;99.90
698;DHT22;331;48.414;9.938;2023-05-07T07:48:15;14.10;99.90
698;DHT22;331;48.414;9.938;2023-05-07T07:50:48;14.10;99.90
698;DHT22;331;48.414;9.938;2023-05-07T07:53:15;14.10;99.90
698;DHT22;331;48.414;9.938;2023-05-07T07:55:43;14.20;99.90
698;DHT22;331;48.414;9.938;2023-05-07T07:58:14;14.20;99.90
698;DHT22;331;48.414;9.938;2023-05-07T08:00:41;14.20;99.90
698;DHT22;331;48.414;9.938;2023-05-07T08:03:10;14.20;99.90
698;DHT22;331;48.414;9.938;2023-05-07T08:05:43;14.30;99.90
698;DHT22;331;48.414;9.938;2023-05-07T08:08:12;14.30;99.90
698;DHT22;331;48.414;9.938;2023-05-07T08:10:41;14.40;99.90
698;DHT22;331;48.414;9.938;2023-05-07T08:13:16;14.40;99.90
698;DHT22;331;48.414;9.938;2023-05-07T08:15:43;14.40;99.90
698;DHT22;331;48.414;9.938;2023-05-07T08:18:11;14.40;99.90
698;DHT22;331;48.414;9.938;2023-05-07T08:20:39;14.40;99.90
698;DHT22;331;48.414;9.938;2023-05-07T08:23:12;14.40;99.90
698;DHT22;331;48.414;9.938;2023-05-07T08:25:42;14.50;99.90
698;DHT22;331;48.414;9.938;2023-05-07T08:30:51;14.80;99.90
698;DHT22;331;48.414;9.938;2023-05-07T08:33:21;14.80;99.90
698;DHT22;331;48.414;9.938;2023-05-07T08:35:57;14.70;99.90
698;DHT22;331;48.414;9.938;2023-05-07T08:38:29;14.70;99.90
698;DHT22;331;48.414;9.938;2023-05-07T08:40:57;14.70;99.90
698;DHT22;331;48.414;9.938;2023-05-07T08:43:28;14.70;99.90
698;DHT22;331;48.414;9.938;2023-05-07T08:45:59;14.70;99.90
698;DHT22;331;48.414;9.938;2023-05-07T08:48:30;14.70;99.90
698;DHT22;331;48.414;9.938;2023-05-07T08:51:06;14.80;99.90
698;DHT22;331;48.414;9.938;2023-05-07T08:53:38;14.80;99.90
698;DHT22;331;48.414;9.938;2023-05-07T08:56:09;14.80;99.90
698;DHT22;331;48.414;9.938;2023-05-07T08:58:38;14.90;99.90
698;DHT22;331;48.414;9.938;2023-05-07T09:01:08;14.90;99.90
698;DHT22;331;48.414;9.938;2023-05-07T09:03:36;14.90;99.90
698;DHT22;331;48.414;9.938;2023-05-07T09:06:05;14.90;99.90
698;DHT22;331;48.414;9.938;2023-05-07T09:08:33;14.90;99.90
698;DHT22;331;48.414;9.938;2023-05-07T09:11:03;15.00;99.90
698;DHT22;331;48.414;9.938;2023-05-07T09:13:31;15.00;99.90
698;DHT22;331;48.414;9.938;2023-05-07T09:16:09;15.00;99.90
698;DHT22;331;48.414;9.938;2023-05-07T09:18:40;15.00;99.90
698;DHT22;331;48.414;9.938;2023-05-07T09:21:27;15.10;99.90
698;DHT22;331;48.414;9.938;2023-05-07T09:24:00;15.10;99.90
698;DHT22;331;48.414;9.938;2023-05-07T09:26:35;15.20;99.90
698;DHT22;331;48.414;9.938;2023-05-07T09:29:04;15.20;99.90
698;DHT22;331;48.414;9.938;2023-05-07T09:31:36;15.20;99.90
698;DHT22;331;48.414;9.938;2023-05-07T09:34:04;15.60;99.90
698;DHT22;331;48.414;9.938;2023-05-07T09:36:33;15.90;99.90
698;DHT22;331;48.414;9.938;2023-05-07T09:39:01;15.90;99.90
698;DHT22;331;48.414;9.938;2023-05-07T09:41:29;15.90;99.90
698;DHT22;331;48.414;9.938;2023-05-07T09:44:08;15.90;99.90
698;DHT22;331;48.414;9.938;2023-05-07T09:46:42;15.80;99.90
698;DHT22;331;48.414;9.938;2023-05-07T09:49:22;15.70;99.90
698;DHT22;331;48.414;9.938;2023-05-07T09:51:58;15.70;99.90
698;DHT22;331;48.414;9.938;2023-05-07T09:54:28;15.70;99.90
698;DHT22;331;48.414;9.938;2023-05-07T09:56:57;15.70;99.90
698;DHT22;331;48.414;9.938;2023-05-07T09:59:29;15.80;99.90
698;DHT22;331;48.414;9.938;2023-05-07T10:02:01;15.90;99.90
698;DHT22;331;48.414;9.938;2023-05-07T10:04:28;15.90;99.90
698;DHT22;331;48.414;9.938;2023-05-07T10:06:55;15.80;99.90
698;DHT22;331;48.414;9.938;2023-05-07T10:09:24;15.90;99.90
698;DHT22;331;48.414;9.938;2023-05-07T10:11:52;15.80;99.90
698;DHT22;331;48.414;9.938;2023-05-07T10:14:21;15.90;99.90
698;DHT22;331;48.414;9.938;2023-05-07T10:16:50;15.90;99.90
698;DHT22;331;48.414;9.938;2023-05-07T10:19:17;15.90;99.90
698;DHT22;331;48.414;9.938;2023-05-07T10:21:51;15.90;99.90
698;DHT22;331;48.414;9.938;2023-05-07T10:24:21;16.00;99.90
698;DHT22;331;48.414;9.938;2023-05-07T10:26:51;16.00;99.90
698;DHT22;331;48.414;9.938;2023-05-07T10:29:21;16.00;99.90
698;DHT22;331;48.414;9.938;2023-05-07T10:31:55;16.00;99.90
698;DHT22;331;48.414;9.938;2023-05-07T10:34:28;16.10;99.90
698;DHT22;331;48.414;9.938;2023-05-07T10:36:56;16.10;99.90
698;DHT22;331;48.414;9.938;2023-05-07T10:39:23;16.10;99.90
698;DHT22;331;48.414;9.938;2023-05-07T10:41:51;16.10;99.90
698;DHT22;331;48.414;9.938;2023-05-07T10:44:25;16.10;99.90
698;DHT22;331;48.414;9.938;2023-05-07T10:47:07;16.10;99.90
698;DHT22;331;48.414;9.938;2023-05-07T10:49:36;16.10;99.90
698;DHT22;331;48.414;9.938;2023-05-07T10:52:16;16.20;99.90
698;DHT22;331;48.414;9.938;2023-05-07T10:55:19;16.20;99.90
698;DHT22;331;48.414;9.938;2023-05-07T11:00:44;16.20;99.90
698;DHT22;331;48.414;9.938;2023-05-07T11:03:20;16.30;99.90
698;DHT22;331;48.414;9.938;2023-05-07T11:06:08;16.30;99.90
698;DHT22;331;48.414;9.938;2023-05-07T11:08:55;16.30;99.90
698;DHT22;331;48.414;9.938;2023-05-07T11:11:44;16.40;99.90
698;DHT22;331;48.414;9.938;2023-05-07T11:17:06;16.40;99.90
698;DHT22;331;48.414;9.938;2023-05-07T11:25:18;16.50;99.90
698;DHT22;331;48.414;9.938;2023-05-07T11:27:50;16.50;99.90
698;DHT22;331;48.414;9.938;2023-05-07T11:30:18;16.50;99.90
698;DHT22;331;48.414;9.938;2023-05-07T11:32:46;16.50;99.90
698;DHT22;331;48.414;9.938;2023-05-07T11:35:16;16.60;99.90
698;DHT22;331;48.414;9.938;2023-05-07T11:37:47;16.60;99.90
698;DHT22;331;48.414;9.938;2023-05-07T11:40:15;16.60;99.90
698;DHT22;331;48.414;9.938;2023-05-07T11:42:44;16.70;99.90
698;DHT22;331;48.414;9.938;2023-05-07T11:45:11;16.70;99.90
698;DHT22;331;48.414;9.938;2023-05-07T11:47:41;16.70;99.90
698;DHT22;331;48.414;9.938;2023-05-07T11:50:09;16.70;99.90
698;DHT22;331;48.414;9.938;2023-05-07T11:52:37;16.70;99.90
698;DHT22;331;48.414;9.938;2023-05-07T11:55:06;16.80;99.90
698;DHT22;331;48.414;9.938;2023-05-07T11:57:33;16.80;99.90
698;DHT22;331;48.414;9.938;2023-05-07T12:00:02;16.80;99.90
698;DHT22;331;48.414;9.938;2023-05-07T12:02:38;16.90;99.90
698;DHT22;331;48.414;9.938;2023-05-07T12:05:05;17.00;99.90
698;DHT22;331;48.414;9.938;2023-05-07T12:07:33;17.00;99.90
698;DHT22;331;48.414;9.938;2023-05-07T12:10:06;17.00;99.90
698;DHT22;331;48.414;9.938;2023-05-07T12:12:37;17.10;99.90
698;DHT22;331;48.414;9.938;2023-05-07T12:15:08;17.10;99.90
698;DHT22;331;48.414;9.938;2023-05-07T12:17:36;17.10;99.90
698;DHT22;331;48.414;9.938;2023-05-07T12:20:03;17.10;99.90
698;DHT22;331;48.414;9.938;2023-05-07T12:22:31;17.20;99.90
698;DHT22;331;48.414;9.938;2023-05-07T12:24:58;17.20;99.90
698;DHT22;331;48.414;9.938;2023-05-07T12:27:25;17.20;99.90
698;DHT22;331;48.414;9.938;2023-05-07T12:29:52;17.30;99.90
698;DHT22;331;48.414;9.938;2023-05-07T12:32:21;17.30;99.90
698;DHT22;331;48.414;9.938;2023-05-07T12:34:49;17.30;99.90
698;DHT22;331;48.414;9.938;2023-05-07T12:37:22;17.40;99.90
698;DHT22;331;48.414;9.938;2023-05-07T12:39:49;17.40;99.90
698;DHT22;331;48.414;9.938;2023-05-07T12:42:18;17.40;99.90
698;DHT22;331;48.414;9.938;2023-05-07T12:44:48;17.40;99.90
698;DHT22;331;48.414;9.938;2023-05-07T12:47:15;17.50;99.90
698;DHT22;331;48.414;9.938;2023-05-07T12:49:44;17.50;99.90
698;DHT22;331;48.414;9.938;2023-05-07T12:52:12;17.50;99.90
698;DHT22;331;48.414;9.938;2023-05-07T12:54:40;17.50;99.90
698;DHT22;331;48.414;9.938;2023-05-07T12:57:07;17.60;99.90
698;DHT22;331;48.414;9.938;2023-05-07T12:59:38;17.60;99.90
698;DHT22;331;48.414;9.938;2023-05-07T13:02:09;17.70;99.90
698;DHT22;331;48.414;9.938;2023-05-07T13:04:37;17.70;99.90
698;DHT22;331;48.414;9.938;2023-05-07T13:07:06;17.70;99.90
698;DHT22;331;48.414;9.938;2023-05-07T13:09:33;17.70;99.90
698;DHT22;331;48.414;9.938;2023-05-07T13:12:02;17.80;99.90
698;DHT22;331;48.414;9.938;2023-05-07T13:14:30;17.80;99.90
698;DHT22;331;48.414;9.938;2023-05-07T13:16:58;17.80;99.90
698;DHT22;331;48.414;9.938;2023-05-07T13:19:25;17.80;99.90
698;DHT22;331;48.414;9.938;2023-05-07T13:21:52;17.90;99.90
698;DHT22;331;48.414;9.938;2023-05-07T13:24:21;17.80;99.90
698;DHT22;331;48.414;9.938;2023-05-07T13:26:48;17.90;99.90
698;DHT22;331;48.414;9.938;2023-05-07T13:31:46;18.20;99.90
698;DHT22;331;48.414;9.938;2023-05-07T13:34:14;18.60;99.90
698;DHT22;331;48.414;9.938;2023-05-07T13:36:41;18.70;99.90
698;DHT22;331;48.414;9.938;2023-05-07T13:39:17;18.90;99.90
698;DHT22;331;48.414;9.938;2023-05-07T13:41:45;18.90;99.90
698;DHT22;331;48.414;9.938;2023-05-07T13:44:12;19.00;99.90
698;DHT22;331;48.414;9.938;2023-05-07T13:46:39;19.00;99.90
698;DHT22;331;48.414;9.938;2023-05-07T13:49:06;19.00;99.90
698;DHT22;331;48.414;9.938;2023-05-07T13:51:33;19.10;99.90
698;DHT22;331;48.414;9.938;2023-05-07T13:54:00;19.00;99.90
698;DHT22;331;48.414;9.938;2023-05-07T13:56:28;19.00;99.90
698;DHT22;331;48.414;9.938;2023-05-07T13:58:59;19.00;99.90
698;DHT22;331;48.414;9.938;2023-05-07T14:01:25;19.10;99.90
698;DHT22;331;48.414;9.938;2023-05-07T14:03:52;19.00;99.90
698;DHT22;331;48.414;9.938;2023-05-07T14:06:22;19.00;99.90
698;DHT22;331;48.414;9.938;2023-05-07T14:08:49;18.90;99.90
698;DHT22;331;48.414;9.938;2023-05-07T14:11:16;18.90;99.90
698;DHT22;331;48.414;9.938;2023-05-07T14:13:44;18.80;99.90
698;DHT22;331;48.414;9.938;2023-05-07T14:16:12;18.70;99.90
698;DHT22;331;48.414;9.938;2023-05-07T14:18:39;18.70;99.90
698;DHT22;331;48.414;9.938;2023-05-07T14:21:09;18.60;99.90
698;DHT22;331;48.414;9.938;2023-05-07T14:23:36;18.60;99.90
698;DHT22;331;48.414;9.938;2023-05-07T14:26:03;18.60;99.90
698;DHT22;331;48.414;9.938;2023-05-07T14:28:30;18.60;99.90
698;DHT22;331;48.414;9.938;2023-05-07T14:30:58;18.50;99.90
698;DHT22;331;48.414;9.938;2023-05-07T14:33:26;18.50;99.90
698;DHT22;331;48.414;9.938;2023-05-07T14:35:53;18.50;99.90
698;DHT22;331;48.414;9.938;2023-05-07T14:38:20;18.50;99.90
698;DHT22;331;48.414;9.938;2023-05-07T14:40:47;18.50;99.90
698;DHT22;331;48.414;9.938;2023-05-07T14:43:15;18.40;99.90
698;DHT22;331;48.414;9.938;2023-05-07T14:45:42;18.40;99.90
698;DHT22;331;48.414;9.938;2023-05-07T14:48:09;18.40;99.90
698;DHT22;331;48.414;9.938;2023-05-07T14:50:41;18.40;99.90
698;DHT22;331;48.414;9.938;2023-05-07T14:53:08;18.40;99.90
698;DHT22;331;48.414;9.938;2023-05-07T14:55:36;18.40;99.90
698;DHT22;331;48.414;9.938;2023-05-07T14:58:03;18.40;99.90
698;DHT22;331;48.414;9.938;2023-05-07T15:00:31;18.40;99.90
698;DHT22;331;48.414;9.938;2023-05-07T15:03:03;18.40;99.90
698;DHT22;331;48.414;9.938;2023-05-07T15:05:31;18.40;99.90
698;DHT22;331;48.414;9.938;2023-05-07T15:07:59;18.40;99.90
698;DHT22;331;48.414;9.938;2023-05-07T15:10:26;18.40;99.90
698;DHT22;331;48.414;9.938;2023-05-07T15:12:53;18.40;99.90
698;DHT22;331;48.414;9.938;2023-05-07T15:15:20;18.40;99.90
698;DHT22;331;48.414;9.938;2023-05-07T15:17:49;18.40;99.90
698;DHT22;331;48.414;9.938;2023-05-07T15:20:16;18.40;99.90
698;DHT22;331;48.414;9.938;2023-05-07T15:22:43;18.40;99.90
698;DHT22;331;48.414;9.938;2023-05-07T15:25:13;18.40;99.90
698;DHT22;331;48.414;9.938;2023-05-07T15:27:40;18.40;99.90
698;DHT22;331;48.414;9.938;2023-05-07T15:30:07;18.40;99.90
698;DHT22;331;48.414;9.938;2023-05-07T15:32:35;18.40;99.90
698;DHT22;331;48.414;9.938;2023-05-07T15:35:02;18.40;99.90
698;DHT22;331;48.414;9.938;2023-05-07T15:37:30;18.40;99.90
698;DHT22;331;48.414;9.938;2023-05-07T15:39:57;18.30;99.90
698;DHT22;331;48.414;9.938;2023-05-07T15:42:26;18.30;99.90
698;DHT22;331;48.414;9.938;2023-05-07T15:44:53;18.30;99.90
698;DHT22;331;48.414;9.938;2023-05-07T15:47:22;18.20;99.90
698;DHT22;331;48.414;9.938;2023-05-07T15:49:49;18.20;99.90
698;DHT22;331;48.414;9.938;2023-05-07T15:52:16;18.20;99.90
698;DHT22;331;48.414;9.938;2023-05-07T15:54:44;18.20;99.90
698;DHT22;331;48.414;9.938;2023-05-07T15:57:11;18.10;99.90
698;DHT22;331;48.414;9.938;2023-05-07T15:59:43;18.10;99.90
698;DHT22;331;48.414;9.938;2023-05-07T16:02:10;18.00;99.90
698;DHT22;331;48.414;9.938;2023-05-07T16:04:37;17.80;99.90
698;DHT22;331;48.414;9.938;2023-05-07T16:07:10;17.80;99.90
698;DHT22;331;48.414;9.938;2023-05-07T16:09:37;17.80;99.90
698;DHT22;331;48.414;9.938;2023-05-07T16:12:04;17.80;99.90
698;DHT22;331;48.414;9.938;2023-05-07T16:14:31;17.80;99.90
698;DHT22;331;48.414;9.938;2023-05-07T16:17:02;17.70;99.90
698;DHT22;331;48.414;9.938;2023-05-07T16:19:29;17.70;99.90
698;DHT22;331;48.414;9.938;2023-05-07T16:21:58;17.70;99.90
698;DHT22;331;48.414;9.938;2023-05-07T16:24:28;17.60;99.90
698;DHT22;331;48.414;9.938;2023-05-07T16:26:55;17.60;99.90
698;DHT22;331;48.414;9.938;2023-05-07T16:29:22;17.50;99.90
698;DHT22;331;48.414;9.938;2023-05-07T16:32:07;17.50;99.90
698;DHT22;331;48.414;9.938;2023-05-07T16:34:34;17.40;99.90
698;DHT22;331;48.414;9.938;2023-05-07T16:37:01;17.40;99.90
698;DHT22;331;48.414;9.938;2023-05-07T16:39:28;17.40;99.90
698;DHT22;331;48.414;9.938;2023-05-07T16:41:55;17.40;99.90
698;DHT22;331;48.414;9.938;2023-05-07T16:44:25;17.30;99.90
698;DHT22;331;48.414;9.938;2023-05-07T16:46:52;17.30;99.90
698;DHT22;331;48.414;9.938;2023-05-07T16:49:20;17.30;99.90
698;DHT22;331;48.414;9.938;2023-05-07T16:51:47;17.30;99.90
698;DHT22;331;48.414;9.938;2023-05-07T16:54:15;17.30;99.90
698;DHT22;331;48.414;9.938;2023-05-07T16:56:45;17.20;99.90
698;DHT22;331;48.414;9.938;2023-05-07T16:59:12;17.20;99.90
698;DHT22;331;48.414;9.938;2023-05-07T17:01:39;17.20;99.90
698;DHT22;331;48.414;9.938;2023-05-07T17:04:10;17.20;99.90